sensor_id;sensor_type;location;lat;lon;timestamp;P1;durP1;ratioP1;P2;durP2;ratioP2
9934;SDS011;5006;41.828;23.478;2023-12-20T00:00:05;3.13;;;1.75;;
9934;SDS011;5006;41.828;23.478;2023-12-20T00:01:12;2.25;;;1.90;;
9934;SDS011;5006;41.828;23.478;2023-12-20T00:02:19;4.00;;;2.83;;
9934;SDS011;5006;41.828;23.478;2023-12-20T00:03:27;2.90;;;2.22;;
9934;SDS011;5006;41.828;23.478;2023-12-20T00:04:32;2.03;;;1.70;;
9934;SDS011;5006;41.828;23.478;2023-12-20T00:05:39;2.45;;;2.00;;
9934;SDS011;5006;41.828;23.478;2023-12-20T00:06:45;3.10;;;1.85;;
9934;SDS011;5006;41.828;23.478;2023-12-20T00:07:51;2.22;;;1.70;;
9934;SDS011;5006;41.828;23.478;2023-12-20T00:08:57;1.95;;;1.60;;
9934;SDS011;5006;41.828;23.478;2023-12-20T00:10:04;2.63;;;1.75;;
9934;SDS011;5006;41.828;23.478;2023-12-20T00:11:10;2.13;;;1.60;;
9934;SDS011;5006;41.828;23.478;2023-12-20T00:12:16;2.60;;;2.10;;
9934;SDS011;5006;41.828;23.478;2023-12-20T00:13:21;1.73;;;1.42;;
9934;SDS011;5006;41.828;23.478;2023-12-20T00:14:28;3.72;;;2.63;;
9934;SDS011;5006;41.828;23.478;2023-12-20T00:15:33;1.45;;;1.20;;
9934;SDS011;5006;41.828;23.478;2023-12-20T00:16:40;1.67;;;1.23;;
9934;SDS011;5006;41.828;23.478;2023-12-20T00:17:45;1.95;;;1.55;;
9934;SDS011;5006;41.828;23.478;2023-12-20T00:18:52;1.38;;;1.00;;
9934;SDS011;5006;41.828;23.478;2023-12-20T00:19:58;1.15;;;1.00;;
9934;SDS011;5006;41.828;23.478;2023-12-20T00:21:05;1.50;;;1.20;;
9934;SDS011;5006;41.828;23.478;2023-12-20T00:22:11;1.60;;;1.27;;
9934;SDS011;5006;41.828;23.478;2023-12-20T00:23:17;1.20;;;1.00;;
9934;SDS011;5006;41.828;23.478;2023-12-20T00:24:22;0.88;;;0.80;;
9934;SDS011;5006;41.828;23.478;2023-12-20T00:25:28;0.98;;;0.88;;
9934;SDS011;5006;41.828;23.478;2023-12-20T00:26:33;1.13;;;0.90;;
9934;SDS011;5006;41.828;23.478;2023-12-20T00:27:40;1.08;;;0.90;;
9934;SDS011;5006;41.828;23.478;2023-12-20T00:28:46;1.70;;;1.20;;
9934;SDS011;5006;41.828;23.478;2023-12-20T00:29:52;1.15;;;1.02;;
9934;SDS011;5006;41.828;23.478;2023-12-20T00:30:57;1.00;;;0.90;;
9934;SDS011;5006;41.828;23.478;2023-12-20T00:32:03;1.05;;;0.88;;
9934;SDS011;5006;41.828;23.478;2023-12-20T00:33:09;1.23;;;1.02;;
9934;SDS011;5006;41.828;23.478;2023-12-20T00:34:16;1.02;;;0.90;;
9934;SDS011;5006;41.828;23.478;2023-12-20T00:35:22;1.05;;;0.93;;
9934;SDS011;5006;41.828;23.478;2023-12-20T00:36:28;1.17;;;0.98;;
9934;SDS011;5006;41.828;23.478;2023-12-20T00:37:33;1.20;;;0.80;;
9934;SDS011;5006;41.828;23.478;2023-12-20T00:38:40;1.17;;;0.90;;
9934;SDS011;5006;41.828;23.478;2023-12-20T00:39:45;1.40;;;1.02;;
9934;SDS011;5006;41.828;23.478;2023-12-20T00:40:51;0.70;;;0.70;;
9934;SDS011;5006;41.828;23.478;2023-12-20T00:41:57;0.95;;;0.80;;
9934;SDS011;5006;41.828;23.478;2023-12-20T00:43:04;0.80;;;0.80;;
9934;SDS011;5006;41.828;23.478;2023-12-20T00:44:09;0.88;;;0.85;;
9934;SDS011;5006;41.828;23.478;2023-12-20T00:45:15;0.82;;;0.80;;
9934;SDS011;5006;41.828;23.478;2023-12-20T00:46:20;1.48;;;0.82;;
9934;SDS011;5006;41.828;23.478;2023-12-20T00:47:26;0.90;;;0.80;;
9934;SDS011;5006;41.828;23.478;2023-12-20T00:48:31;0.82;;;0.80;;
9934;SDS011;5006;41.828;23.478;2023-12-20T00:49:38;1.27;;;0.90;;
9934;SDS011;5006;41.828;23.478;2023-12-20T00:50:44;0.73;;;0.70;;
9934;SDS011;5006;41.828;23.478;2023-12-20T00:51:51;0.88;;;0.80;;
9934;SDS011;5006;41.828;23.478;2023-12-20T00:52:57;1.00;;;0.90;;
9934;SDS011;5006;41.828;23.478;2023-12-20T00:54:04;2.20;;;1.20;;
9934;SDS011;5006;41.828;23.478;2023-12-20T00:55:10;1.27;;;1.10;;
9934;SDS011;5006;41.828;23.478;2023-12-20T00:56:15;1.30;;;1.08;;
9934;SDS011;5006;41.828;23.478;2023-12-20T00:57:22;1.20;;;0.90;;
9934;SDS011;5006;41.828;23.478;2023-12-20T00:58:28;1.65;;;1.45;;
9934;SDS011;5006;41.828;23.478;2023-12-20T00:59:34;1.42;;;1.25;;
9934;SDS011;5006;41.828;23.478;2023-12-20T01:00:39;1.55;;;1.27;;
9934;SDS011;5006;41.828;23.478;2023-12-20T01:01:46;1.10;;;1.00;;
9934;SDS011;5006;41.828;23.478;2023-12-20T01:02:51;1.10;;;0.98;;
9934;SDS011;5006;41.828;23.478;2023-12-20T01:03:57;1.10;;;1.00;;
9934;SDS011;5006;41.828;23.478;2023-12-20T01:05:04;1.77;;;1.20;;
9934;SDS011;5006;41.828;23.478;2023-12-20T01:06:11;1.90;;;1.45;;
9934;SDS011;5006;41.828;23.478;2023-12-20T01:07:16;1.77;;;1.50;;
9934;SDS011;5006;41.828;23.478;2023-12-20T01:08:23;1.98;;;1.60;;
9934;SDS011;5006;41.828;23.478;2023-12-20T01:09:28;1.90;;;1.30;;
9934;SDS011;5006;41.828;23.478;2023-12-20T01:10:35;2.00;;;1.45;;
9934;SDS011;5006;41.828;23.478;2023-12-20T01:11:41;2.72;;;2.10;;
9934;SDS011;5006;41.828;23.478;2023-12-20T01:12:47;2.97;;;2.22;;
9934;SDS011;5006;41.828;23.478;2023-12-20T01:13:52;2.85;;;2.42;;
9934;SDS011;5006;41.828;23.478;2023-12-20T01:14:58;2.90;;;2.35;;
9934;SDS011;5006;41.828;23.478;2023-12-20T01:16:03;3.65;;;3.00;;
9934;SDS011;5006;41.828;23.478;2023-12-20T01:17:10;3.30;;;2.80;;
9934;SDS011;5006;41.828;23.478;2023-12-20T01:18:16;3.25;;;2.20;;
9934;SDS011;5006;41.828;23.478;2023-12-20T01:19:24;3.33;;;2.20;;
9934;SDS011;5006;41.828;23.478;2023-12-20T01:20:30;2.33;;;2.10;;
9934;SDS011;5006;41.828;23.478;2023-12-20T01:21:37;3.85;;;2.50;;
9934;SDS011;5006;41.828;23.478;2023-12-20T01:22:42;3.10;;;1.95;;
9934;SDS011;5006;41.828;23.478;2023-12-20T01:23:50;3.13;;;1.67;;
9934;SDS011;5006;41.828;23.478;2023-12-20T01:24:55;2.60;;;2.10;;
9934;SDS011;5006;41.828;23.478;2023-12-20T01:26:02;1.30;;;1.20;;
9934;SDS011;5006;41.828;23.478;2023-12-20T01:27:09;1.33;;;1.20;;
9934;SDS011;5006;41.828;23.478;2023-12-20T01:28:16;1.73;;;1.15;;
9934;SDS011;5006;41.828;23.478;2023-12-20T01:29:22;1.20;;;1.10;;
9934;SDS011;5006;41.828;23.478;2023-12-20T01:30:28;1.00;;;0.85;;
9934;SDS011;5006;41.828;23.478;2023-12-20T01:31:33;1.13;;;0.88;;
9934;SDS011;5006;41.828;23.478;2023-12-20T01:32:39;0.88;;;0.80;;
9934;SDS011;5006;41.828;23.478;2023-12-20T01:33:45;1.52;;;0.90;;
9934;SDS011;5006;41.828;23.478;2023-12-20T01:34:52;1.02;;;0.88;;
9934;SDS011;5006;41.828;23.478;2023-12-20T01:36:00;1.20;;;1.00;;
9934;SDS011;5006;41.828;23.478;2023-12-20T01:37:06;0.80;;;0.80;;
9934;SDS011;5006;41.828;23.478;2023-12-20T01:38:11;1.00;;;0.80;;
9934;SDS011;5006;41.828;23.478;2023-12-20T01:39:17;1.33;;;0.80;;
9934;SDS011;5006;41.828;23.478;2023-12-20T01:40:22;1.00;;;0.90;;
9934;SDS011;5006;41.828;23.478;2023-12-20T01:41:28;1.30;;;0.90;;
9934;SDS011;5006;41.828;23.478;2023-12-20T01:42:33;1.25;;;0.90;;
9934;SDS011;5006;41.828;23.478;2023-12-20T01:43:39;1.00;;;0.85;;
9934;SDS011;5006;41.828;23.478;2023-12-20T01:44:44;1.20;;;0.98;;
9934;SDS011;5006;41.828;23.478;2023-12-20T01:45:51;1.02;;;0.93;;
9934;SDS011;5006;41.828;23.478;2023-12-20T01:46:57;1.17;;;1.00;;
9934;SDS011;5006;41.828;23.478;2023-12-20T01:48:04;0.98;;;0.70;;
9934;SDS011;5006;41.828;23.478;2023-12-20T01:49:12;1.85;;;0.60;;
9934;SDS011;5006;41.828;23.478;2023-12-20T01:50:19;0.98;;;0.90;;
9934;SDS011;5006;41.828;23.478;2023-12-20T01:51:27;1.10;;;0.90;;
9934;SDS011;5006;41.828;23.478;2023-12-20T01:52:34;1.02;;;0.80;;
9934;SDS011;5006;41.828;23.478;2023-12-20T01:53:40;0.77;;;0.70;;
9934;SDS011;5006;41.828;23.478;2023-12-20T01:54:48;1.08;;;0.80;;
9934;SDS011;5006;41.828;23.478;2023-12-20T01:55:54;1.95;;;0.88;;
9934;SDS011;5006;41.828;23.478;2023-12-20T01:57:02;0.50;;;0.50;;
9934;SDS011;5006;41.828;23.478;2023-12-20T01:58:08;0.88;;;0.68;;
9934;SDS011;5006;41.828;23.478;2023-12-20T01:59:16;0.80;;;0.77;;
9934;SDS011;5006;41.828;23.478;2023-12-20T02:00:23;0.73;;;0.57;;
9934;SDS011;5006;41.828;23.478;2023-12-20T02:01:31;0.70;;;0.70;;
9934;SDS011;5006;41.828;23.478;2023-12-20T02:02:39;0.68;;;0.68;;
9934;SDS011;5006;41.828;23.478;2023-12-20T02:03:46;0.73;;;0.55;;
9934;SDS011;5006;41.828;23.478;2023-12-20T02:04:52;0.88;;;0.70;;
9934;SDS011;5006;41.828;23.478;2023-12-20T02:05:58;0.73;;;0.70;;
9934;SDS011;5006;41.828;23.478;2023-12-20T02:07:04;0.40;;;0.40;;
9934;SDS011;5006;41.828;23.478;2023-12-20T02:08:12;1.10;;;0.60;;
9934;SDS011;5006;41.828;23.478;2023-12-20T02:09:17;0.93;;;0.70;;
9934;SDS011;5006;41.828;23.478;2023-12-20T02:10:24;1.30;;;0.70;;
9934;SDS011;5006;41.828;23.478;2023-12-20T02:11:30;0.60;;;0.60;;
9934;SDS011;5006;41.828;23.478;2023-12-20T02:12:37;0.90;;;0.60;;
9934;SDS011;5006;41.828;23.478;2023-12-20T02:13:43;0.75;;;0.73;;
9934;SDS011;5006;41.828;23.478;2023-12-20T02:14:50;1.02;;;0.68;;
9934;SDS011;5006;41.828;23.478;2023-12-20T02:15:56;0.73;;;0.70;;
9934;SDS011;5006;41.828;23.478;2023-12-20T02:17:02;1.02;;;0.75;;
9934;SDS011;5006;41.828;23.478;2023-12-20T02:18:08;1.90;;;0.80;;
9934;SDS011;5006;41.828;23.478;2023-12-20T02:19:15;0.70;;;0.70;;
9934;SDS011;5006;41.828;23.478;2023-12-20T02:20:22;1.80;;;1.10;;
9934;SDS011;5006;41.828;23.478;2023-12-20T02:21:33;3.38;;;1.60;;
9934;SDS011;5006;41.828;23.478;2023-12-20T02:22:38;5.57;;;2.17;;
9934;SDS011;5006;41.828;23.478;2023-12-20T02:23:44;7.88;;;2.30;;
9934;SDS011;5006;41.828;23.478;2023-12-20T02:24:49;5.22;;;1.40;;
9934;SDS011;5006;41.828;23.478;2023-12-20T02:25:55;10.77;;;1.75;;
9934;SDS011;5006;41.828;23.478;2023-12-20T02:27:01;41.80;;;3.60;;
9934;SDS011;5006;41.828;23.478;2023-12-20T02:28:07;15.15;;;3.03;;
9934;SDS011;5006;41.828;23.478;2023-12-20T02:29:14;15.95;;;3.60;;
9934;SDS011;5006;41.828;23.478;2023-12-20T02:30:19;31.08;;;4.53;;
9934;SDS011;5006;41.828;23.478;2023-12-20T02:31:26;50.03;;;4.95;;
9934;SDS011;5006;41.828;23.478;2023-12-20T02:32:32;16.50;;;3.80;;
9934;SDS011;5006;41.828;23.478;2023-12-20T02:33:38;13.70;;;3.38;;
9934;SDS011;5006;41.828;23.478;2023-12-20T02:34:45;7.95;;;2.80;;
9934;SDS011;5006;41.828;23.478;2023-12-20T02:35:53;6.50;;;3.53;;
9934;SDS011;5006;41.828;23.478;2023-12-20T02:37:00;11.48;;;3.08;;
9934;SDS011;5006;41.828;23.478;2023-12-20T02:38:08;8.77;;;3.30;;
9934;SDS011;5006;41.828;23.478;2023-12-20T02:39:13;12.95;;;3.10;;
9934;SDS011;5006;41.828;23.478;2023-12-20T02:40:20;9.98;;;2.25;;
9934;SDS011;5006;41.828;23.478;2023-12-20T02:41:25;31.50;;;3.95;;
9934;SDS011;5006;41.828;23.478;2023-12-20T02:42:31;115.30;;;6.85;;
9934;SDS011;5006;41.828;23.478;2023-12-20T02:43:38;52.13;;;5.43;;
9934;SDS011;5006;41.828;23.478;2023-12-20T02:44:44;58.60;;;5.10;;
9934;SDS011;5006;41.828;23.478;2023-12-20T02:45:49;35.80;;;4.80;;
9934;SDS011;5006;41.828;23.478;2023-12-20T02:46:55;13.13;;;2.60;;
9934;SDS011;5006;41.828;23.478;2023-12-20T02:48:00;8.40;;;3.40;;
9934;SDS011;5006;41.828;23.478;2023-12-20T02:49:07;27.60;;;3.47;;
9934;SDS011;5006;41.828;23.478;2023-12-20T02:50:12;13.50;;;2.38;;
9934;SDS011;5006;41.828;23.478;2023-12-20T02:51:18;24.58;;;2.50;;
9934;SDS011;5006;41.828;23.478;2023-12-20T02:52:25;47.28;;;4.38;;
9934;SDS011;5006;41.828;23.478;2023-12-20T02:53:33;50.33;;;4.57;;
9934;SDS011;5006;41.828;23.478;2023-12-20T02:54:39;12.65;;;3.47;;
9934;SDS011;5006;41.828;23.478;2023-12-20T02:55:45;18.83;;;2.72;;
9934;SDS011;5006;41.828;23.478;2023-12-20T02:56:50;32.78;;;3.58;;
9934;SDS011;5006;41.828;23.478;2023-12-20T02:57:56;68.78;;;4.68;;
9934;SDS011;5006;41.828;23.478;2023-12-20T02:59:01;207.00;;;10.43;;
9934;SDS011;5006;41.828;23.478;2023-12-20T03:00:11;236.80;;;12.77;;
9934;SDS011;5006;41.828;23.478;2023-12-20T03:01:17;159.02;;;9.55;;
9934;SDS011;5006;41.828;23.478;2023-12-20T03:02:24;63.22;;;5.63;;
9934;SDS011;5006;41.828;23.478;2023-12-20T03:03:29;30.85;;;3.65;;
9934;SDS011;5006;41.828;23.478;2023-12-20T03:04:35;21.33;;;3.95;;
9934;SDS011;5006;41.828;23.478;2023-12-20T03:05:41;37.60;;;4.68;;
9934;SDS011;5006;41.828;23.478;2023-12-20T03:06:48;89.50;;;7.72;;
9934;SDS011;5006;41.828;23.478;2023-12-20T03:07:54;41.38;;;5.30;;
9934;SDS011;5006;41.828;23.478;2023-12-20T03:09:00;21.23;;;3.47;;
9934;SDS011;5006;41.828;23.478;2023-12-20T03:10:07;10.65;;;2.17;;
9934;SDS011;5006;41.828;23.478;2023-12-20T03:11:14;3.47;;;1.70;;
9934;SDS011;5006;41.828;23.478;2023-12-20T03:12:21;17.35;;;3.33;;
9934;SDS011;5006;41.828;23.478;2023-12-20T03:13:26;7.38;;;2.85;;
9934;SDS011;5006;41.828;23.478;2023-12-20T03:14:32;22.88;;;3.72;;
9934;SDS011;5006;41.828;23.478;2023-12-20T03:15:37;56.60;;;4.25;;
9934;SDS011;5006;41.828;23.478;2023-12-20T03:16:46;15.18;;;3.25;;
9934;SDS011;5006;41.828;23.478;2023-12-20T03:17:52;6.50;;;2.95;;
9934;SDS011;5006;41.828;23.478;2023-12-20T03:18:58;5.18;;;2.63;;
9934;SDS011;5006;41.828;23.478;2023-12-20T03:20:03;7.38;;;1.70;;
9934;SDS011;5006;41.828;23.478;2023-12-20T03:21:10;5.85;;;1.40;;
9934;SDS011;5006;41.828;23.478;2023-12-20T03:22:15;5.68;;;2.20;;
9934;SDS011;5006;41.828;23.478;2023-12-20T03:23:22;6.60;;;2.20;;
9934;SDS011;5006;41.828;23.478;2023-12-20T03:24:28;1.85;;;1.10;;
9934;SDS011;5006;41.828;23.478;2023-12-20T03:25:35;2.50;;;1.40;;
9934;SDS011;5006;41.828;23.478;2023-12-20T03:26:40;2.63;;;2.00;;
9934;SDS011;5006;41.828;23.478;2023-12-20T03:27:46;3.78;;;2.10;;
9934;SDS011;5006;41.828;23.478;2023-12-20T03:28:51;3.17;;;2.20;;
9934;SDS011;5006;41.828;23.478;2023-12-20T03:29:57;3.33;;;2.05;;
9934;SDS011;5006;41.828;23.478;2023-12-20T03:31:02;2.67;;;1.52;;
9934;SDS011;5006;41.828;23.478;2023-12-20T03:32:09;3.13;;;1.60;;
9934;SDS011;5006;41.828;23.478;2023-12-20T03:33:15;19.13;;;3.17;;
9934;SDS011;5006;41.828;23.478;2023-12-20T03:34:22;4.43;;;2.30;;
9934;SDS011;5006;41.828;23.478;2023-12-20T03:35:27;5.78;;;2.42;;
9934;SDS011;5006;41.828;23.478;2023-12-20T03:36:34;4.38;;;2.20;;
9934;SDS011;5006;41.828;23.478;2023-12-20T03:37:39;11.55;;;2.78;;
9934;SDS011;5006;41.828;23.478;2023-12-20T03:38:47;41.08;;;3.22;;
9934;SDS011;5006;41.828;23.478;2023-12-20T03:39:52;44.42;;;3.45;;
9934;SDS011;5006;41.828;23.478;2023-12-20T03:40:59;25.17;;;2.65;;
9934;SDS011;5006;41.828;23.478;2023-12-20T03:42:04;12.23;;;2.35;;
9934;SDS011;5006;41.828;23.478;2023-12-20T03:43:10;9.45;;;2.35;;
9934;SDS011;5006;41.828;23.478;2023-12-20T03:44:15;2.65;;;1.50;;
9934;SDS011;5006;41.828;23.478;2023-12-20T03:45:20;4.47;;;1.48;;
9934;SDS011;5006;41.828;23.478;2023-12-20T03:46:26;3.47;;;1.58;;
9934;SDS011;5006;41.828;23.478;2023-12-20T03:47:31;16.30;;;2.42;;
9934;SDS011;5006;41.828;23.478;2023-12-20T03:48:37;30.73;;;3.88;;
9934;SDS011;5006;41.828;23.478;2023-12-20T03:49:42;18.95;;;2.78;;
9934;SDS011;5006;41.828;23.478;2023-12-20T03:50:49;44.50;;;4.72;;
9934;SDS011;5006;41.828;23.478;2023-12-20T03:51:54;5.93;;;2.67;;
9934;SDS011;5006;41.828;23.478;2023-12-20T03:53:00;4.90;;;3.00;;
9934;SDS011;5006;41.828;23.478;2023-12-20T03:54:06;4.53;;;2.00;;
9934;SDS011;5006;41.828;23.478;2023-12-20T03:55:13;5.75;;;2.45;;
9934;SDS011;5006;41.828;23.478;2023-12-20T03:56:18;6.88;;;2.20;;
9934;SDS011;5006;41.828;23.478;2023-12-20T03:57:24;2.65;;;1.95;;
9934;SDS011;5006;41.828;23.478;2023-12-20T03:58:30;7.07;;;2.40;;
9934;SDS011;5006;41.828;23.478;2023-12-20T03:59:36;3.92;;;2.08;;
9934;SDS011;5006;41.828;23.478;2023-12-20T04:00:43;3.08;;;1.52;;
9934;SDS011;5006;41.828;23.478;2023-12-20T04:01:48;3.85;;;1.75;;
9934;SDS011;5006;41.828;23.478;2023-12-20T04:02:54;8.60;;;1.92;;
9934;SDS011;5006;41.828;23.478;2023-12-20T04:03:59;6.45;;;1.92;;
9934;SDS011;5006;41.828;23.478;2023-12-20T04:05:04;4.35;;;1.83;;
9934;SDS011;5006;41.828;23.478;2023-12-20T04:06:16;3.35;;;1.65;;
9934;SDS011;5006;41.828;23.478;2023-12-20T04:07:22;7.22;;;2.10;;
9934;SDS011;5006;41.828;23.478;2023-12-20T04:08:29;5.20;;;2.15;;
9934;SDS011;5006;41.828;23.478;2023-12-20T04:09:35;6.07;;;1.90;;
9934;SDS011;5006;41.828;23.478;2023-12-20T04:10:42;2.53;;;1.50;;
9934;SDS011;5006;41.828;23.478;2023-12-20T04:11:48;1.90;;;1.30;;
9934;SDS011;5006;41.828;23.478;2023-12-20T04:12:54;1.40;;;1.30;;
9934;SDS011;5006;41.828;23.478;2023-12-20T04:14:00;3.15;;;1.63;;
9934;SDS011;5006;41.828;23.478;2023-12-20T04:15:05;5.05;;;1.80;;
9934;SDS011;5006;41.828;23.478;2023-12-20T04:16:13;5.38;;;1.30;;
9934;SDS011;5006;41.828;23.478;2023-12-20T04:17:18;5.60;;;1.90;;
9934;SDS011;5006;41.828;23.478;2023-12-20T04:18:27;7.65;;;2.08;;
9934;SDS011;5006;41.828;23.478;2023-12-20T04:19:33;4.55;;;1.30;;
9934;SDS011;5006;41.828;23.478;2023-12-20T04:20:39;3.72;;;1.30;;
9934;SDS011;5006;41.828;23.478;2023-12-20T04:21:44;8.75;;;2.58;;
9934;SDS011;5006;41.828;23.478;2023-12-20T04:22:50;6.55;;;2.50;;
9934;SDS011;5006;41.828;23.478;2023-12-20T04:23:55;7.47;;;1.98;;
9934;SDS011;5006;41.828;23.478;2023-12-20T04:25:02;7.32;;;2.00;;
9934;SDS011;5006;41.828;23.478;2023-12-20T04:26:08;7.05;;;3.20;;
9934;SDS011;5006;41.828;23.478;2023-12-20T04:27:15;6.53;;;2.50;;
9934;SDS011;5006;41.828;23.478;2023-12-20T04:28:20;6.22;;;2.63;;
9934;SDS011;5006;41.828;23.478;2023-12-20T04:29:26;4.00;;;1.60;;
9934;SDS011;5006;41.828;23.478;2023-12-20T04:30:31;5.18;;;1.90;;
9934;SDS011;5006;41.828;23.478;2023-12-20T04:31:37;2.72;;;1.13;;
9934;SDS011;5006;41.828;23.478;2023-12-20T04:32:42;3.20;;;1.38;;
9934;SDS011;5006;41.828;23.478;2023-12-20T04:33:48;5.45;;;1.55;;
9934;SDS011;5006;41.828;23.478;2023-12-20T04:34:53;3.72;;;1.70;;
9934;SDS011;5006;41.828;23.478;2023-12-20T04:35:58;1.55;;;1.30;;
9934;SDS011;5006;41.828;23.478;2023-12-20T04:37:05;2.83;;;2.17;;
9934;SDS011;5006;41.828;23.478;2023-12-20T04:38:12;2.42;;;2.08;;
9934;SDS011;5006;41.828;23.478;2023-12-20T04:39:18;2.55;;;1.52;;
9934;SDS011;5006;41.828;23.478;2023-12-20T04:40:25;5.10;;;2.22;;
9934;SDS011;5006;41.828;23.478;2023-12-20T04:41:31;4.95;;;2.60;;
9934;SDS011;5006;41.828;23.478;2023-12-20T04:42:38;6.90;;;3.35;;
9934;SDS011;5006;41.828;23.478;2023-12-20T04:43:43;5.55;;;2.72;;
9934;SDS011;5006;41.828;23.478;2023-12-20T04:44:49;7.35;;;2.10;;
9934;SDS011;5006;41.828;23.478;2023-12-20T04:45:54;2.55;;;1.35;;
9934;SDS011;5006;41.828;23.478;2023-12-20T04:47:01;2.25;;;1.50;;
9934;SDS011;5006;41.828;23.478;2023-12-20T04:48:07;1.38;;;0.93;;
9934;SDS011;5006;41.828;23.478;2023-12-20T04:49:14;1.67;;;1.20;;
9934;SDS011;5006;41.828;23.478;2023-12-20T04:50:20;2.75;;;1.17;;
9934;SDS011;5006;41.828;23.478;2023-12-20T04:51:27;2.97;;;1.52;;
9934;SDS011;5006;41.828;23.478;2023-12-20T04:52:33;5.60;;;2.42;;
9934;SDS011;5006;41.828;23.478;2023-12-20T04:53:40;6.13;;;2.70;;
9934;SDS011;5006;41.828;23.478;2023-12-20T04:54:46;5.35;;;2.25;;
9934;SDS011;5006;41.828;23.478;2023-12-20T04:55:54;7.90;;;2.65;;
9934;SDS011;5006;41.828;23.478;2023-12-20T04:56:59;3.85;;;2.03;;
9934;SDS011;5006;41.828;23.478;2023-12-20T04:58:05;3.67;;;2.30;;
9934;SDS011;5006;41.828;23.478;2023-12-20T04:59:11;5.07;;;2.15;;
9934;SDS011;5006;41.828;23.478;2023-12-20T05:00:16;8.05;;;2.75;;
9934;SDS011;5006;41.828;23.478;2023-12-20T05:01:22;6.13;;;2.50;;
9934;SDS011;5006;41.828;23.478;2023-12-20T05:02:28;2.65;;;1.40;;
9934;SDS011;5006;41.828;23.478;2023-12-20T05:03:34;4.28;;;2.58;;
9934;SDS011;5006;41.828;23.478;2023-12-20T05:04:40;2.90;;;2.20;;
9934;SDS011;5006;41.828;23.478;2023-12-20T05:05:46;6.97;;;1.98;;
9934;SDS011;5006;41.828;23.478;2023-12-20T05:06:53;3.90;;;2.00;;
9934;SDS011;5006;41.828;23.478;2023-12-20T05:07:58;8.52;;;2.25;;
9934;SDS011;5006;41.828;23.478;2023-12-20T05:09:05;57.13;;;4.15;;
9934;SDS011;5006;41.828;23.478;2023-12-20T05:10:11;145.77;;;7.22;;
9934;SDS011;5006;41.828;23.478;2023-12-20T05:11:20;172.02;;;9.57;;
9934;SDS011;5006;41.828;23.478;2023-12-20T05:12:25;70.28;;;4.93;;
9934;SDS011;5006;41.828;23.478;2023-12-20T05:13:31;24.77;;;3.85;;
9934;SDS011;5006;41.828;23.478;2023-12-20T05:14:37;4.55;;;1.90;;
9934;SDS011;5006;41.828;23.478;2023-12-20T05:15:43;5.80;;;1.70;;
9934;SDS011;5006;41.828;23.478;2023-12-20T05:16:48;9.00;;;1.90;;
9934;SDS011;5006;41.828;23.478;2023-12-20T05:17:54;19.30;;;2.70;;
9934;SDS011;5006;41.828;23.478;2023-12-20T05:18:59;13.10;;;2.80;;
9934;SDS011;5006;41.828;23.478;2023-12-20T05:20:10;13.05;;;2.83;;
9934;SDS011;5006;41.828;23.478;2023-12-20T05:21:15;89.13;;;5.63;;
9934;SDS011;5006;41.828;23.478;2023-12-20T05:22:21;75.85;;;5.28;;
9934;SDS011;5006;41.828;23.478;2023-12-20T05:23:26;17.05;;;3.15;;
9934;SDS011;5006;41.828;23.478;2023-12-20T05:24:33;174.45;;;9.38;;
9934;SDS011;5006;41.828;23.478;2023-12-20T05:25:38;71.10;;;5.38;;
9934;SDS011;5006;41.828;23.478;2023-12-20T05:26:44;18.48;;;2.97;;
9934;SDS011;5006;41.828;23.478;2023-12-20T05:27:51;12.73;;;2.75;;
9934;SDS011;5006;41.828;23.478;2023-12-20T05:28:58;51.70;;;4.47;;
9934;SDS011;5006;41.828;23.478;2023-12-20T05:30:04;153.13;;;8.48;;
9934;SDS011;5006;41.828;23.478;2023-12-20T05:31:11;50.90;;;5.13;;
9934;SDS011;5006;41.828;23.478;2023-12-20T05:32:18;21.85;;;4.00;;
9934;SDS011;5006;41.828;23.478;2023-12-20T05:33:23;40.63;;;3.90;;
9934;SDS011;5006;41.828;23.478;2023-12-20T05:34:30;12.73;;;2.92;;
9934;SDS011;5006;41.828;23.478;2023-12-20T05:35:36;22.88;;;4.35;;
9934;SDS011;5006;41.828;23.478;2023-12-20T05:36:43;22.00;;;3.58;;
9934;SDS011;5006;41.828;23.478;2023-12-20T05:37:48;11.15;;;2.25;;
9934;SDS011;5006;41.828;23.478;2023-12-20T05:38:54;16.38;;;5.43;;
9934;SDS011;5006;41.828;23.478;2023-12-20T05:39:59;17.60;;;6.18;;
9934;SDS011;5006;41.828;23.478;2023-12-20T05:41:05;77.63;;;6.75;;
9934;SDS011;5006;41.828;23.478;2023-12-20T05:42:12;52.03;;;6.38;;
9934;SDS011;5006;41.828;23.478;2023-12-20T05:43:18;22.90;;;4.22;;
9934;SDS011;5006;41.828;23.478;2023-12-20T05:44:24;9.55;;;3.70;;
9934;SDS011;5006;41.828;23.478;2023-12-20T05:45:31;9.85;;;2.60;;
9934;SDS011;5006;41.828;23.478;2023-12-20T05:46:37;7.88;;;3.25;;
9934;SDS011;5006;41.828;23.478;2023-12-20T05:47:44;9.05;;;3.58;;
9934;SDS011;5006;41.828;23.478;2023-12-20T05:48:49;10.93;;;3.30;;
9934;SDS011;5006;41.828;23.478;2023-12-20T05:49:56;2.95;;;2.05;;
9934;SDS011;5006;41.828;23.478;2023-12-20T05:51:02;3.92;;;2.10;;
9934;SDS011;5006;41.828;23.478;2023-12-20T05:52:09;6.07;;;3.30;;
9934;SDS011;5006;41.828;23.478;2023-12-20T05:53:14;10.38;;;5.35;;
9934;SDS011;5006;41.828;23.478;2023-12-20T05:54:20;22.15;;;4.43;;
9934;SDS011;5006;41.828;23.478;2023-12-20T05:55:26;14.18;;;5.93;;
9934;SDS011;5006;41.828;23.478;2023-12-20T05:56:32;38.75;;;9.70;;
9934;SDS011;5006;41.828;23.478;2023-12-20T05:57:39;26.80;;;8.57;;
9934;SDS011;5006;41.828;23.478;2023-12-20T05:58:46;16.80;;;8.25;;
9934;SDS011;5006;41.828;23.478;2023-12-20T05:59:51;28.60;;;17.80;;
9934;SDS011;5006;41.828;23.478;2023-12-20T06:00:57;24.23;;;10.55;;
9934;SDS011;5006;41.828;23.478;2023-12-20T06:02:03;24.52;;;6.00;;
9934;SDS011;5006;41.828;23.478;2023-12-20T06:03:09;12.05;;;4.35;;
9934;SDS011;5006;41.828;23.478;2023-12-20T06:04:14;112.63;;;7.60;;
9934;SDS011;5006;41.828;23.478;2023-12-20T06:05:20;34.53;;;5.20;;
9934;SDS011;5006;41.828;23.478;2023-12-20T06:06:26;16.58;;;4.18;;
9934;SDS011;5006;41.828;23.478;2023-12-20T06:07:32;25.75;;;4.07;;
9934;SDS011;5006;41.828;23.478;2023-12-20T06:08:37;22.58;;;4.45;;
9934;SDS011;5006;41.828;23.478;2023-12-20T06:09:44;10.95;;;3.83;;
9934;SDS011;5006;41.828;23.478;2023-12-20T06:10:50;8.68;;;4.75;;
9934;SDS011;5006;41.828;23.478;2023-12-20T06:11:57;13.77;;;4.90;;
9934;SDS011;5006;41.828;23.478;2023-12-20T06:13:03;10.50;;;5.68;;
9934;SDS011;5006;41.828;23.478;2023-12-20T06:14:11;10.27;;;5.43;;
9934;SDS011;5006;41.828;23.478;2023-12-20T06:15:17;15.63;;;5.10;;
9934;SDS011;5006;41.828;23.478;2023-12-20T06:16:24;11.85;;;4.47;;
9934;SDS011;5006;41.828;23.478;2023-12-20T06:17:29;32.42;;;6.18;;
9934;SDS011;5006;41.828;23.478;2023-12-20T06:18:36;24.70;;;5.68;;
9934;SDS011;5006;41.828;23.478;2023-12-20T06:19:42;15.10;;;8.40;;
9934;SDS011;5006;41.828;23.478;2023-12-20T06:20:49;11.73;;;5.97;;
9934;SDS011;5006;41.828;23.478;2023-12-20T06:21:54;5.70;;;2.70;;
9934;SDS011;5006;41.828;23.478;2023-12-20T06:23:01;5.90;;;3.25;;
9934;SDS011;5006;41.828;23.478;2023-12-20T06:24:07;11.77;;;7.40;;
9934;SDS011;5006;41.828;23.478;2023-12-20T06:25:14;13.02;;;8.18;;
9934;SDS011;5006;41.828;23.478;2023-12-20T06:26:19;8.05;;;5.20;;
9934;SDS011;5006;41.828;23.478;2023-12-20T06:27:26;7.68;;;3.70;;
9934;SDS011;5006;41.828;23.478;2023-12-20T06:28:32;6.50;;;3.53;;
9934;SDS011;5006;41.828;23.478;2023-12-20T06:29:39;5.22;;;3.03;;
9934;SDS011;5006;41.828;23.478;2023-12-20T06:30:45;6.32;;;3.35;;
9934;SDS011;5006;41.828;23.478;2023-12-20T06:31:51;9.35;;;5.47;;
9934;SDS011;5006;41.828;23.478;2023-12-20T06:32:56;9.75;;;5.55;;
9934;SDS011;5006;41.828;23.478;2023-12-20T06:34:03;9.48;;;4.68;;
9934;SDS011;5006;41.828;23.478;2023-12-20T06:35:08;11.57;;;5.47;;
9934;SDS011;5006;41.828;23.478;2023-12-20T06:36:14;14.27;;;4.97;;
9934;SDS011;5006;41.828;23.478;2023-12-20T06:37:20;8.65;;;5.03;;
9934;SDS011;5006;41.828;23.478;2023-12-20T06:38:25;16.60;;;10.80;;
9934;SDS011;5006;41.828;23.478;2023-12-20T06:39:31;7.30;;;5.30;;
9934;SDS011;5006;41.828;23.478;2023-12-20T06:40:38;4.95;;;3.38;;
9934;SDS011;5006;41.828;23.478;2023-12-20T06:41:44;2.95;;;2.03;;
9934;SDS011;5006;41.828;23.478;2023-12-20T06:42:49;3.88;;;2.45;;